TULLOCH (TUL)

Elevation: 515' · STANISLAUS R basin · Operator: US Bureau of Reclamation

Provisional data, subject to change.
Query executed Tuesday at 0:45:38   clock

Select a sensor type for a plot of data.
Note: Reservoir Flows are daily averages.

Earlier

Date RES ELE    STORAGE    RES CHG    TOC STO    ABV TOC    OUTFLOW    INFLOW    EVAP    RIV REL    SPILL    DIS PWR   
 FEET   AF   AF   AF   AF   CFS   CFS   CFS   CFS   CFS   CFS  
05/29/2016 508.71 65363 -731 66861 -1498 1660 1305 14 0 0 1660
05/30/2016 507.95 64428 -935 67000 -2572 1647 1191 15 0 0 1647
05/31/2016 508.20 64735 307 67000 -2265 1684 1856 17 0 0 1684
06/01/2016 508.44 65031 296 67000 -1969 1749 1914 16 0 0 1749
06/02/2016 508.72 65375 344 67000 -1625 1700 1891 18 0 0 1700
06/03/2016 508.59 65215 -160 67000 -1785 1687 1624 18 0 0 1687
06/04/2016 508.76 65425 210 67000 -1575 1610 1735 19 0 0 1610
06/05/2016 509.12 65870 445 67000 -1130 1521 1759 14 0 0 1521
06/06/2016 508.86 65548 -322 67000 -1452 1468 1324 18 0 0 1468
06/07/2016 508.43 65018 -530 67000 -1982 1482 1229 14 0 0 1482
06/08/2016 508.17 64698 -320 67000 -2302 1551 1407 17 0 0 1551
06/09/2016 509.02 65745 1047 67000 -1255 1524 2068 16 0 0 1524
06/10/2016 508.95 65658 -87 67000 -1342 1564 1535 15 0 0 1564
06/11/2016 508.48 65080 -578 67000 -1920 1627 1351 15 0 0 1627
06/12/2016 508.48 65080 0 67000 -1920 1669 1682 13 0 0 1669
06/13/2016 508.50 65105 25 67000 -1895 1612 1641 16 0 0 1612
06/14/2016 508.20 64735 -370 67000 -2265 1652 1480 15 0 0 1652
06/15/2016 508.54 65154 419 67000 -1846 1597 1822 14 0 0 1597
06/16/2016 508.60 65228 74 67000 -1772 1495 1544 12 0 0 1495
06/17/2016 508.64 65277 49 67000 -1723 1464 1503 14 0 0 1464
06/18/2016 508.71 65363 86 67000 -1637 1498 1555 14 0 0 1498
06/19/2016 509.00 65720 357 67000 -1280 1444 1635 11 0 0 1444
06/20/2016 509.19 65957 237 67000 -1043 1358 1490 13 0 0 1358
06/21/2016 509.24 66020 63 67000 -980 1411 1460 17 0 0 1411
06/22/2016 509.07 65807 -213 67000 -1193 1507 1419 19 0 0 1507
06/23/2016 508.38 64957 -850 67000 -2043 1506 1096 19 0 0 1506
06/24/2016 508.59 65215 258 67000 -1785 1529 1679 20 0 0 1529
06/25/2016 508.74 65400 185 67000 -1600 1539 1647 15 0 0 1539
06/26/2016 508.91 65609 209 67000 -1391 1495 1618 18 0 0 1495
06/27/2016 -- -- -- -- -- -- -- -- -- -- --
06/28/2016 -- -- -- -- -- -- -- -- -- -- --

Later | Latest

Warning! This data is preliminary and subject to revision.

Show TUL Map | Plot TUL Data | 1 Month TUL Data | Real-Time TUL Data | TUL Info